createdAt,value
2019-04-20T00:02:15.666Z,9.36
2019-04-20T00:04:41.156Z,9.34
2019-04-20T00:07:08.213Z,9.34
2019-04-20T00:09:38.723Z,9.38
2019-04-20T00:12:12.734Z,9.35
2019-04-20T00:14:36.254Z,9.22
2019-04-20T00:17:03.073Z,9.11
2019-04-20T00:19:37.496Z,9.02
2019-04-20T00:22:36.367Z,9.04
2019-04-20T00:25:20.875Z,9.04
2019-04-20T00:28:25.208Z,9.00
2019-04-20T00:30:55.735Z,8.88
2019-04-20T00:33:27.416Z,8.83
2019-04-20T00:35:40.091Z,8.78
2019-04-20T00:38:07.820Z,8.72
2019-04-20T00:40:36.090Z,8.68
2019-04-20T00:43:04.675Z,8.64
2019-04-20T00:45:35.236Z,8.71
2019-04-20T00:48:07.966Z,8.75
2019-04-20T00:50:46.964Z,8.69
2019-04-20T00:53:11.441Z,8.57
2019-04-20T00:55:27.775Z,8.52
2019-04-20T00:58:03.711Z,8.45
2019-04-20T01:00:40.815Z,8.39
2019-04-20T01:03:09.573Z,8.33
2019-04-20T01:08:27.396Z,8.22
2019-04-20T01:10:57.466Z,8.08
2019-04-20T01:13:25.192Z,8.01
2019-04-20T01:15:58.934Z,7.94
2019-04-20T01:18:21.384Z,7.87
2019-04-20T01:20:49.376Z,7.84
2019-04-20T01:23:20.765Z,7.85
2019-04-20T01:25:48.388Z,7.84
2019-04-20T01:28:32.403Z,7.82
2019-04-20T01:30:58.553Z,7.80
2019-04-20T01:33:25.951Z,7.77
2019-04-20T01:36:00.679Z,7.74
2019-04-20T01:38:26.800Z,7.67
2019-04-20T01:40:40.212Z,7.62
2019-04-20T01:43:07.995Z,7.58
2019-04-20T01:45:39.234Z,7.48
2019-04-20T01:48:06.363Z,7.44
2019-04-20T01:50:37.995Z,7.43
2019-04-20T01:53:12.770Z,7.43
2019-04-20T01:55:45.658Z,7.42
2019-04-20T01:58:30.248Z,7.39
2019-04-20T02:04:06.389Z,7.27
2019-04-20T02:06:39.863Z,7.18
2019-04-20T02:09:14.524Z,7.16
2019-04-20T02:11:41.664Z,7.19
2019-04-20T02:14:09.145Z,7.22
2019-04-20T02:16:40.795Z,7.18
2019-04-20T02:19:21.636Z,7.16
2019-04-20T02:21:46.693Z,7.16
2019-04-20T02:24:05.989Z,7.10
2019-04-20T02:26:32.318Z,7.11
2019-04-20T02:29:24.524Z,7.17
2019-04-20T02:35:07.637Z,7.08
2019-04-20T02:38:08.419Z,7.05
2019-04-20T02:40:19.187Z,6.99
2019-04-20T02:42:51.464Z,7.02
2019-04-20T02:45:57.764Z,7.02
2019-04-20T02:48:36.931Z,6.98
2019-04-20T02:51:06.599Z,6.95
2019-04-20T02:56:08.299Z,6.90
2019-04-20T02:58:34.398Z,6.85
2019-04-20T03:00:55.107Z,6.79
2019-04-20T03:03:10.119Z,6.79
2019-04-20T03:06:04.628Z,6.87
2019-04-20T03:08:30.525Z,6.95
2019-04-20T03:11:09.398Z,6.91
2019-04-20T03:13:32.268Z,6.81
2019-04-20T03:16:09.088Z,6.81
2019-04-20T03:18:33.818Z,6.83
2019-04-20T03:20:58.459Z,6.84
2019-04-20T03:23:35.611Z,6.87
2019-04-20T03:26:05.296Z,6.83
2019-04-20T03:29:01.834Z,6.77
2019-04-20T03:32:03.611Z,6.71
2019-04-20T03:36:44.712Z,6.76
2019-04-20T03:39:01.496Z,6.81
2019-04-20T03:41:22.461Z,6.78
2019-04-20T03:43:43.542Z,6.76
2019-04-20T03:46:14.368Z,6.73
2019-04-20T03:48:56.237Z,6.72
2019-04-20T03:51:37.677Z,6.69
2019-04-20T03:54:13.365Z,6.67
2019-04-20T03:56:54.529Z,6.68
2019-04-20T03:59:45.743Z,6.86
2019-04-20T04:02:29.748Z,7.02
2019-04-20T04:05:04.286Z,7.18
2019-04-20T04:07:22.875Z,7.33
2019-04-20T04:10:03.316Z,7.41
2019-04-20T04:12:56.919Z,7.37
2019-04-20T04:15:25.163Z,7.29
2019-04-20T04:17:58.800Z,7.19
2019-04-20T04:20:34.360Z,7.15
2019-04-20T04:23:10.274Z,7.09
2019-04-20T04:25:33.692Z,6.86
2019-04-20T04:28:06.994Z,6.71
2019-04-20T04:30:35.460Z,6.69
2019-04-20T04:33:32.710Z,6.68
2019-04-20T04:35:29.815Z,6.59
2019-04-20T04:38:08.067Z,6.46
2019-04-20T04:40:42.487Z,6.34
2019-04-20T04:43:05.694Z,6.37
2019-04-20T04:45:17.685Z,6.42
2019-04-20T04:47:45.290Z,6.45
2019-04-20T04:50:17.612Z,6.48
2019-04-20T04:52:52.237Z,6.57
2019-04-20T04:55:23.736Z,6.84
2019-04-20T04:57:41.220Z,6.86
2019-04-20T05:00:10.225Z,6.71
2019-04-20T05:02:45.064Z,6.65
2019-04-20T05:05:36.006Z,6.70
2019-04-20T05:07:58.106Z,6.74
2019-04-20T05:10:14.171Z,6.76
2019-04-20T05:12:42.231Z,6.80
2019-04-20T05:15:24.446Z,6.83
2019-04-20T05:18:01.573Z,6.88
2019-04-20T05:20:30.751Z,6.94
2019-04-20T05:23:12.671Z,6.97
2019-04-20T05:26:11.629Z,7.02
2019-04-20T05:28:27.650Z,7.17
2019-04-20T05:30:48.674Z,7.25
2019-04-20T05:33:25.524Z,7.30
2019-04-20T05:36:01.852Z,7.38
2019-04-20T05:38:37.169Z,7.51
2019-04-20T05:41:01.638Z,7.71
2019-04-20T05:43:33.039Z,7.88
2019-04-20T05:45:58.704Z,8.23
2019-04-20T05:48:27.324Z,8.61
2019-04-20T05:50:57.521Z,8.90
2019-04-20T05:53:34.038Z,9.12
2019-04-20T05:55:55.997Z,9.30
2019-04-20T05:58:32.713Z,9.44
2019-04-20T06:01:08.829Z,9.65
2019-04-20T06:03:28.950Z,9.82
2019-04-20T06:06:05.113Z,10.08
2019-04-20T06:08:38.984Z,10.29
2019-04-20T06:10:55.074Z,10.39
2019-04-20T06:13:32.663Z,10.64
2019-04-20T06:16:07.356Z,10.74
2019-04-20T06:18:40.160Z,10.95
2019-04-20T06:21:26.541Z,11.11
2019-04-20T06:24:15.658Z,11.23
2019-04-20T06:26:52.018Z,11.36
2019-04-20T06:29:07.286Z,11.45
2019-04-20T06:31:39.797Z,11.57
2019-04-20T06:34:30.423Z,11.74
2019-04-20T06:36:50.813Z,11.90
2019-04-20T06:39:26.302Z,12.10
2019-04-20T06:44:26.436Z,12.61
2019-04-20T06:46:55.305Z,12.82
2019-04-20T06:49:25.554Z,12.86
2019-04-20T06:51:57.391Z,12.96
2019-04-20T06:54:18.310Z,12.94
2019-04-20T06:57:00.206Z,13.02
2019-04-20T06:59:33.483Z,13.13
2019-04-20T07:02:20.219Z,13.33
2019-04-20T07:04:40.230Z,13.56
2019-04-20T07:06:56.186Z,13.69
2019-04-20T07:09:32.435Z,13.78
2019-04-20T07:11:50.743Z,13.78
2019-04-20T07:14:06.650Z,13.93
2019-04-20T07:17:02.842Z,13.97
2019-04-20T07:19:28.694Z,14.05
2019-04-20T07:22:25.064Z,14.14
2019-04-20T07:24:53.137Z,14.35
2019-04-20T07:27:13.547Z,14.53
2019-04-20T07:29:49.149Z,14.64
2019-04-20T07:32:07.652Z,14.83
2019-04-20T07:34:38.736Z,14.88
2019-04-20T07:37:41.964Z,14.90
2019-04-20T07:39:48.272Z,15.02
2019-04-20T07:42:19.173Z,15.10
2019-04-20T07:44:49.762Z,15.28
2019-04-20T07:47:13.713Z,15.36
2019-04-20T07:49:44.367Z,15.46
2019-04-20T07:51:51.086Z,15.53
2019-04-20T07:54:49.274Z,15.64
2019-04-20T07:57:04.018Z,15.64
2019-04-20T07:59:27.282Z,15.70
2019-04-20T08:02:24.973Z,15.85
2019-04-20T08:05:07.369Z,15.95
2019-04-20T08:07:17.900Z,16.06
2019-04-20T08:09:54.747Z,16.12
2019-04-20T08:12:54.127Z,16.09
2019-04-20T08:15:22.073Z,16.16
2019-04-20T08:17:51.275Z,16.27
2019-04-20T08:20:09.172Z,16.39
2019-04-20T08:22:42.157Z,16.59
2019-04-20T08:25:06.723Z,16.83
2019-04-20T08:27:23.364Z,17.14
2019-04-20T08:30:21.418Z,17.38
2019-04-20T08:33:04.256Z,17.41
2019-04-20T08:35:39.301Z,17.43
2019-04-20T08:38:33.738Z,17.46
2019-04-20T08:40:37.390Z,17.67
2019-04-20T08:43:10.940Z,17.85
2019-04-20T08:45:42.035Z,17.89
2019-04-20T08:48:12.856Z,17.96
2019-04-20T08:50:35.675Z,18.14
2019-04-20T08:55:29.836Z,18.22
2019-04-20T08:57:42.452Z,18.21
2019-04-20T09:00:11.110Z,18.25
2019-04-20T09:02:41.332Z,18.29
2019-04-20T09:05:18.580Z,18.40
2019-04-20T09:07:50.092Z,18.46
2019-04-20T09:10:32.416Z,18.60
2019-04-20T09:12:53.127Z,18.68
2019-04-20T09:15:08.283Z,18.83
2019-04-20T09:17:46.703Z,18.92
2019-04-20T09:20:14.750Z,18.89
2019-04-20T09:23:33.953Z,18.83
2019-04-20T09:26:10.489Z,18.92
2019-04-20T09:28:33.432Z,18.97
2019-04-20T09:31:29.751Z,19.06
2019-04-20T09:34:07.461Z,19.13
2019-04-20T09:36:38.622Z,19.21
2019-04-20T09:39:33.585Z,19.17
2019-04-20T09:42:09.197Z,19.31
2019-04-20T09:44:41.044Z,19.40
2019-04-20T09:47:07.327Z,19.45
2019-04-20T09:49:45.540Z,19.62
2019-04-20T09:52:26.164Z,19.74
2019-04-20T09:54:51.156Z,19.76
2019-04-20T09:57:25.503Z,19.79
2019-04-20T09:59:55.391Z,19.86
2019-04-20T10:02:12.884Z,20.06
2019-04-20T10:04:31.766Z,20.20
2019-04-20T10:07:05.926Z,20.22
2019-04-20T10:09:32.594Z,20.23
2019-04-20T10:11:57.532Z,20.27
2019-04-20T10:14:24.925Z,20.25
2019-04-20T10:16:52.147Z,20.38
2019-04-20T10:19:24.913Z,20.55
2019-04-20T10:21:48.724Z,20.65
2019-04-20T10:24:16.690Z,20.80
2019-04-20T10:26:44.914Z,20.90
2019-04-20T10:29:13.242Z,21.03
2019-04-20T10:31:46.908Z,21.13
2019-04-20T10:34:09.616Z,21.17
2019-04-20T10:36:57.533Z,21.24
2019-04-20T10:39:25.116Z,21.30
2019-04-20T10:41:56.212Z,21.40
2019-04-20T10:44:21.338Z,21.47
2019-04-20T10:46:49.148Z,21.56
2019-04-20T10:49:17.523Z,21.72
2019-04-20T10:51:44.812Z,21.93
2019-04-20T10:54:12.214Z,22.13
2019-04-20T10:56:39.459Z,22.24
2019-04-20T10:59:07.700Z,22.32
2019-04-20T11:01:35.828Z,22.39
2019-04-20T11:04:03.245Z,22.49
2019-04-20T11:06:30.374Z,22.54
2019-04-20T11:08:58.524Z,22.71
2019-04-20T11:11:28.657Z,22.86
2019-04-20T11:13:55.376Z,23.13
2019-04-20T11:16:22.475Z,23.22
2019-04-20T11:18:49.632Z,23.32
2019-04-20T11:21:19.911Z,23.45
2019-04-20T11:23:46.986Z,23.56
2019-04-20T11:26:14.217Z,23.66
2019-04-20T11:28:42.013Z,23.73
2019-04-20T11:31:10.263Z,23.79
2019-04-20T11:33:38.375Z,23.87
2019-04-20T11:36:07.320Z,23.93
2019-04-20T11:38:35.249Z,23.96
2019-04-20T11:41:11.380Z,24.05
2019-04-20T11:43:31.603Z,24.22
2019-04-20T11:45:58.781Z,24.19
2019-04-20T11:48:25.892Z,24.23
2019-04-20T11:50:53.596Z,24.34
2019-04-20T11:53:21.525Z,24.40
2019-04-20T11:55:48.867Z,24.47
2019-04-20T11:58:16.376Z,24.66
2019-04-20T12:00:56.058Z,24.79
2019-04-20T12:03:28.264Z,24.99
2019-04-20T12:05:53.791Z,25.28
2019-04-20T12:08:20.749Z,25.66
2019-04-20T12:10:53.965Z,26.03
2019-04-20T12:13:18.392Z,26.37
2019-04-20T12:15:45.663Z,26.50
2019-04-20T12:18:13.779Z,26.72
2019-04-20T12:20:41.030Z,26.91
2019-04-20T12:23:08.549Z,27.17
2019-04-20T12:25:36.740Z,27.48
2019-04-20T12:28:05.437Z,27.74
2019-04-20T12:30:33.503Z,27.90
2019-04-20T12:33:02.164Z,28.13
2019-04-20T12:35:30.258Z,28.32
2019-04-20T12:37:58.988Z,28.34
2019-04-20T12:40:26.272Z,28.67
2019-04-20T12:42:53.373Z,28.74
2019-04-20T12:45:21.801Z,28.91
2019-04-20T12:47:51.375Z,29.02
2019-04-20T12:50:19.319Z,29.17
2019-04-20T12:52:46.537Z,29.03
2019-04-20T12:55:14.608Z,29.24
2019-04-20T12:57:42.812Z,29.68
2019-04-20T13:00:11.889Z,29.71
2019-04-20T13:02:39.125Z,29.77
2019-04-20T13:05:07.277Z,29.78
2019-04-20T13:07:39.601Z,30.07
2019-04-20T13:10:05.685Z,30.48
2019-04-20T13:12:52.305Z,30.83
2019-04-20T13:16:00.398Z,30.71
2019-04-20T13:18:47.860Z,30.39
2019-04-20T13:21:14.963Z,30.34
2019-04-20T13:23:42.855Z,30.13
2019-04-20T13:26:10.997Z,30.06
2019-04-20T13:28:39.134Z,29.80
2019-04-20T13:31:11.621Z,29.75
2019-04-20T13:33:39.116Z,30.01
2019-04-20T13:36:06.327Z,30.20
2019-04-20T13:38:34.219Z,30.41
2019-04-20T13:41:03.946Z,30.42
2019-04-20T13:43:32.061Z,30.25
2019-04-20T13:46:00.467Z,29.93
2019-04-20T13:48:28.857Z,30.25
2019-04-20T13:50:56.168Z,30.46
2019-04-20T13:53:23.474Z,30.19
2019-04-20T13:55:50.694Z,29.93
2019-04-20T13:58:38.166Z,29.74
2019-04-20T14:01:31.198Z,29.66
2019-04-20T14:04:19.319Z,29.60
2019-04-20T14:06:47.671Z,29.63
2019-04-20T14:09:21.647Z,29.71
2019-04-20T14:11:51.739Z,29.86
2019-04-20T14:14:19.294Z,29.93
2019-04-20T14:16:47.401Z,29.82
2019-04-20T14:19:14.703Z,29.51
2019-04-20T14:21:41.884Z,29.17
2019-04-20T14:24:09.066Z,29.00
2019-04-20T14:26:40.357Z,28.62
2019-04-20T14:29:05.466Z,28.50
2019-04-20T14:31:52.119Z,28.37
2019-04-20T14:34:20.660Z,28.33
2019-04-20T14:36:48.823Z,28.52
2019-04-20T14:39:16.230Z,28.60
2019-04-20T14:41:44.463Z,28.35
2019-04-20T14:44:12.100Z,28.12
2019-04-20T14:46:40.004Z,28.02
2019-04-20T14:49:07.214Z,27.90
2019-04-20T14:51:35.327Z,27.72
2019-04-20T14:54:03.347Z,27.61
2019-04-20T14:56:31.477Z,27.67
2019-04-20T14:59:07.801Z,27.63
2019-04-20T15:01:50.408Z,27.51
2019-04-20T15:04:20.373Z,27.45
2019-04-20T15:06:46.733Z,27.39
2019-04-20T15:09:14.777Z,27.28
2019-04-20T15:11:44.287Z,27.24
2019-04-20T15:14:11.171Z,27.34
2019-04-20T15:16:38.554Z,27.26
2019-04-20T15:19:31.713Z,27.24
2019-04-20T15:22:00.835Z,27.20
2019-04-20T15:24:29.281Z,27.08
2019-04-20T15:26:56.633Z,27.03
2019-04-20T15:29:24.242Z,27.01
2019-04-20T15:31:54.272Z,26.97
2019-04-20T15:34:23.101Z,27.16
2019-04-20T15:36:50.233Z,27.24
2019-04-20T15:39:17.333Z,27.20
2019-04-20T15:41:45.305Z,27.11
2019-04-20T15:47:24.154Z,27.21
2019-04-20T15:49:51.708Z,27.06
2019-04-20T15:52:24.499Z,27.06
2019-04-20T15:54:49.594Z,27.01
2019-04-20T15:57:23.002Z,26.91
2019-04-20T16:04:01.497Z,26.67
2019-04-20T16:06:29.583Z,26.45
2019-04-20T16:09:00.011Z,26.45
2019-04-20T16:11:28.675Z,26.41
2019-04-20T16:13:57.727Z,26.35
2019-04-20T16:16:25.681Z,26.37
2019-04-20T16:18:52.931Z,26.36
2019-04-20T16:21:24.323Z,26.28
2019-04-20T16:24:16.902Z,26.24
2019-04-20T16:27:05.281Z,26.29
2019-04-20T16:29:33.549Z,26.19
2019-04-20T16:32:00.814Z,26.04
2019-04-20T16:34:27.946Z,25.97
2019-04-20T16:36:57.802Z,25.79
2019-04-20T16:39:24.714Z,25.77
2019-04-20T16:41:54.066Z,25.67
2019-04-20T16:44:21.287Z,25.51
2019-04-20T16:46:48.407Z,25.37
2019-04-20T16:49:16.883Z,25.26
2019-04-20T16:51:45.105Z,25.14
2019-04-20T16:54:12.372Z,25.05
2019-04-20T16:56:39.796Z,24.95
2019-04-20T16:59:10.357Z,24.87
2019-04-20T17:01:37.123Z,24.86
2019-04-20T17:04:10.676Z,24.78
2019-04-20T17:06:34.238Z,24.68
2019-04-20T17:09:01.423Z,24.56
2019-04-20T17:11:29.880Z,24.44
2019-04-20T17:13:59.922Z,24.37
2019-04-20T17:16:26.297Z,24.23
2019-04-20T17:18:53.385Z,24.11
2019-04-20T17:21:25.320Z,23.96
2019-04-20T17:23:51.466Z,23.89
2019-04-20T17:26:29.539Z,23.77
2019-04-20T17:29:10.353Z,23.65
2019-04-20T17:32:09.859Z,23.49
2019-04-20T17:34:54.430Z,23.35
2019-04-20T17:37:06.766Z,23.19
2019-04-20T17:39:45.316Z,23.04
2019-04-20T17:42:20.987Z,22.89
2019-04-20T17:44:52.948Z,22.75
2019-04-20T17:47:35.036Z,22.58
2019-04-20T17:50:02.093Z,22.53
2019-04-20T17:52:33.971Z,22.41
2019-04-20T17:54:45.352Z,22.26
2019-04-20T17:57:13.078Z,22.15
2019-04-20T17:59:51.215Z,21.95
2019-04-20T18:02:53.554Z,21.82
2019-04-20T18:05:27.061Z,21.63
2019-04-20T18:08:02.663Z,21.52
2019-04-20T18:10:26.401Z,21.37
2019-04-20T18:12:57.005Z,21.19
2019-04-20T18:15:43.826Z,21.07
2019-04-20T18:18:35.453Z,20.90
2019-04-20T18:21:10.750Z,20.68
2019-04-20T18:23:44.857Z,20.60
2019-04-20T18:26:35.845Z,20.45
2019-04-20T18:29:03.304Z,20.41
2019-04-20T18:31:15.466Z,20.32
2019-04-20T18:33:44.362Z,20.16
2019-04-20T18:36:13.432Z,20.01
2019-04-20T18:38:49.619Z,19.88
2019-04-20T18:41:21.008Z,19.75
2019-04-20T18:43:46.032Z,19.68
2019-04-20T18:46:22.840Z,19.60
2019-04-20T18:48:54.384Z,19.48
2019-04-20T18:51:05.966Z,19.40
2019-04-20T18:53:39.215Z,19.28
2019-04-20T18:56:04.265Z,19.16
2019-04-20T18:58:31.510Z,19.01
2019-04-20T19:01:19.174Z,18.87
2019-04-20T19:03:47.703Z,18.70
2019-04-20T19:06:16.092Z,18.53
2019-04-20T19:08:49.394Z,18.42
2019-04-20T19:11:21.629Z,18.31
2019-04-20T19:17:16.688Z,18.30
2019-04-20T19:20:34.946Z,18.19
2019-04-20T19:23:02.363Z,18.13
2019-04-20T19:25:34.328Z,18.05
2019-04-20T19:28:01.285Z,18.06
2019-04-20T19:30:37.384Z,18.04
2019-04-20T19:33:17.582Z,18.03
2019-04-20T19:35:40.623Z,17.99
2019-04-20T19:38:09.155Z,17.93
2019-04-20T19:40:38.553Z,17.88
2019-04-20T19:43:11.105Z,17.79
2019-04-20T19:45:51.273Z,17.69
2019-04-20T19:48:12.413Z,17.57
2019-04-20T19:50:50.465Z,17.49
2019-04-20T19:53:21.166Z,17.41
2019-04-20T19:55:40.453Z,17.38
2019-04-20T19:58:10.420Z,17.29
2019-04-20T20:00:46.312Z,17.28
2019-04-20T20:03:12.148Z,17.17
2019-04-20T20:05:44.879Z,17.20
2019-04-20T20:08:14.895Z,17.12
2019-04-20T20:10:40.674Z,17.14
2019-04-20T20:13:43.021Z,17.21
2019-04-20T20:16:10.572Z,17.05
2019-04-20T20:18:46.723Z,16.96
2019-04-20T20:21:16.115Z,16.95
2019-04-20T20:23:32.163Z,16.91
2019-04-20T20:29:38.444Z,16.81
2019-04-20T20:32:15.460Z,16.70
2019-04-20T20:34:36.374Z,16.59
2019-04-20T20:37:04.297Z,16.58
2019-04-20T20:39:32.602Z,16.50
2019-04-20T20:42:13.136Z,16.42
2019-04-20T20:44:38.927Z,16.37
2019-04-20T20:47:20.983Z,16.29
2019-04-20T20:49:48.019Z,16.24
2019-04-20T20:52:17.408Z,16.18
2019-04-20T20:54:37.739Z,16.12
2019-04-20T20:57:07.361Z,16.00
2019-04-20T20:59:42.977Z,15.91
2019-04-20T21:02:06.891Z,15.86
2019-04-20T21:04:29.984Z,15.85
2019-04-20T21:06:58.311Z,15.79
2019-04-20T21:09:27.100Z,15.74
2019-04-20T21:12:00.625Z,15.67
2019-04-20T21:14:29.132Z,15.64
2019-04-20T21:17:01.773Z,15.57
2019-04-20T21:19:55.006Z,15.45
2019-04-20T21:22:13.179Z,15.44
2019-04-20T21:24:37.983Z,15.42
2019-04-20T21:27:08.875Z,15.42
2019-04-20T21:29:40.769Z,15.41
2019-04-20T21:32:09.300Z,15.28
2019-04-20T21:34:33.154Z,15.12
2019-04-20T21:37:04.447Z,15.04
2019-04-20T21:39:39.337Z,14.93
2019-04-20T21:42:12.031Z,14.91
2019-04-20T21:44:37.497Z,14.92
2019-04-20T21:47:03.446Z,14.87
2019-04-20T21:49:43.882Z,14.75
2019-04-20T21:52:03.655Z,14.74
2019-04-20T21:54:29.846Z,14.67
2019-04-20T21:57:08.961Z,14.69
2019-04-20T21:59:40.916Z,14.67
2019-04-20T22:02:12.911Z,14.64
2019-04-20T22:04:33.553Z,14.63
2019-04-20T22:07:00.762Z,14.54
2019-04-20T22:09:37.138Z,14.57
2019-04-20T22:11:58.282Z,14.47
2019-04-20T22:14:29.582Z,14.38
2019-04-20T22:16:57.441Z,14.31
2019-04-20T22:19:36.764Z,14.30
2019-04-20T22:22:05.562Z,14.33
2019-04-20T22:24:40.308Z,14.25
2019-04-20T22:27:04.968Z,14.21
2019-04-20T22:29:21.850Z,14.07
2019-04-20T22:31:53.472Z,13.99
2019-04-20T22:34:21.339Z,13.91
2019-04-20T22:36:48.718Z,13.87
2019-04-20T22:39:42.134Z,13.62
2019-04-20T22:42:10.815Z,13.34
2019-04-20T22:44:36.349Z,13.11
2019-04-20T22:47:23.338Z,12.90
2019-04-20T22:50:11.905Z,12.74
2019-04-20T22:52:36.246Z,12.55
2019-04-20T22:55:01.233Z,12.41
2019-04-20T22:57:31.772Z,12.27
2019-04-20T22:59:53.956Z,12.14
2019-04-20T23:02:13.597Z,12.15
2019-04-20T23:04:40.868Z,12.18
2019-04-20T23:07:08.544Z,12.33
2019-04-20T23:09:43.796Z,12.41
2019-04-20T23:12:11.332Z,12.43
2019-04-20T23:14:34.293Z,12.44
2019-04-20T23:17:02.145Z,12.45
2019-04-20T23:19:38.236Z,12.48
2019-04-20T23:22:02.905Z,12.57
2019-04-20T23:24:29.047Z,12.54
2019-04-20T23:26:57.387Z,12.50
2019-04-20T23:29:27.227Z,12.49
2019-04-20T23:31:59.616Z,12.45
2019-04-20T23:34:25.549Z,12.43
2019-04-20T23:36:52.563Z,12.41
2019-04-20T23:39:23.334Z,12.34
2019-04-20T23:41:55.374Z,12.20
2019-04-20T23:44:29.246Z,12.10
2019-04-20T23:47:18.358Z,12.10
2019-04-20T23:50:03.375Z,12.05
2019-04-20T23:52:42.453Z,12.03
2019-04-20T23:54:54.303Z,11.96
2019-04-20T23:57:17.585Z,11.86
2019-04-20T23:59:46.649Z,11.75
